BOX915 EDDF-EDDP
Flight info
| Callsign | BOX915 |
|---|---|
| Flight time | 0h 42m |
| Altitude | 27000 |
| Route | TOBAK8F/25C TOBAK N858 MAXOT/N0447F230 T212 LASTO T956 GOXLI GOXLI1R |
| Aircraft | B77L/H-SDE1E2E3FGHIJ2J3J4J5M1RWXY/LB1D1 |
Departure
| Time | 2026-05-05 18:32 |
|---|---|
| Airport | Frankfurt Main Airport (EDDF) |
Arrival
| Time | 2026-05-05 19:15 |
|---|---|
| Airport | Leipzig/Halle Airport (EDDP) |
| Time | Latitude | Longitude | Altitude | Speed | Heading |
|---|---|---|---|---|---|
| 2026-05-05 17:30 | 50.03735 | 8.52775 | 354 ft | 0 kts | 339° |
| 2026-05-05 18:06 | 50.03724 | 8.52782 | 348 ft | 4 kts | 339° |
| 2026-05-05 18:06 | 50.03699 | 8.52797 | 358 ft | 4 kts | 338° |
| 2026-05-05 18:07 | 50.03676 | 8.52811 | 357 ft | 2 kts | 338° |
| 2026-05-05 18:07 | 50.03653 | 8.52820 | 357 ft | 4 kts | 10° |
| 2026-05-05 18:07 | 50.03635 | 8.52804 | 357 ft | 4 kts | 64° |
| 2026-05-05 18:07 | 50.03627 | 8.52766 | 356 ft | 4 kts | 75° |
| 2026-05-05 18:08 | 50.03619 | 8.52729 | 356 ft | 4 kts | 70° |
| 2026-05-05 18:08 | 50.03614 | 8.52704 | 356 ft | 4 kts | 70° |
| 2026-05-05 18:08 | 50.03604 | 8.52665 | 356 ft | 4 kts | 69° |
| 2026-05-05 18:09 | 50.03597 | 8.52635 | 356 ft | 1 kts | 69° |
| 2026-05-05 18:14 | 50.03597 | 8.52636 | 356 ft | 0 kts | 69° |
| 2026-05-05 18:14 | 50.03609 | 8.52684 | 356 ft | 8 kts | 69° |
| 2026-05-05 18:14 | 50.03628 | 8.52764 | 356 ft | 8 kts | 73° |
| 2026-05-05 18:14 | 50.03618 | 8.52843 | 356 ft | 8 kts | 129° |
| 2026-05-05 18:15 | 50.03587 | 8.52918 | 351 ft | 9 kts | 108° |
| 2026-05-05 18:15 | 50.03595 | 8.53008 | 355 ft | 9 kts | 69° |
| 2026-05-05 18:15 | 50.03616 | 8.53098 | 355 ft | 10 kts | 70° |
| 2026-05-05 18:15 | 50.03641 | 8.53202 | 356 ft | 10 kts | 69° |
| 2026-05-05 18:16 | 50.03666 | 8.53304 | 354 ft | 10 kts | 69° |
| 2026-05-05 18:16 | 50.03690 | 8.53408 | 351 ft | 10 kts | 70° |
| 2026-05-05 18:16 | 50.03694 | 8.53425 | 355 ft | 0 kts | 70° |
| 2026-05-05 18:17 | 50.03696 | 8.53433 | 353 ft | 3 kts | 70° |
| 2026-05-05 18:17 | 50.03696 | 8.53436 | 353 ft | 0 kts | 70° |
| 2026-05-05 18:18 | 50.03704 | 8.53503 | 353 ft | 14 kts | 97° |
| 2026-05-05 18:18 | 50.03623 | 8.53553 | 349 ft | 14 kts | 195° |
| 2026-05-05 18:19 | 50.03529 | 8.53498 | 350 ft | 14 kts | 197° |
| 2026-05-05 18:19 | 50.03491 | 8.53606 | 349 ft | 15 kts | 74° |
| 2026-05-05 18:19 | 50.03526 | 8.53758 | 354 ft | 15 kts | 70° |
| 2026-05-05 18:19 | 50.03561 | 8.53911 | 351 ft | 15 kts | 70° |
| 2026-05-05 18:20 | 50.03600 | 8.54070 | 354 ft | 19 kts | 69° |
| 2026-05-05 18:20 | 50.03658 | 8.54309 | 351 ft | 26 kts | 70° |
| 2026-05-05 18:20 | 50.03720 | 8.54571 | 357 ft | 26 kts | 70° |
| 2026-05-05 18:20 | 50.03782 | 8.54834 | 359 ft | 26 kts | 70° |
| 2026-05-05 18:21 | 50.03845 | 8.55096 | 356 ft | 26 kts | 69° |
| 2026-05-05 18:21 | 50.03908 | 8.55359 | 358 ft | 26 kts | 70° |
| 2026-05-05 18:21 | 50.03970 | 8.55618 | 361 ft | 26 kts | 70° |
| 2026-05-05 18:21 | 50.04031 | 8.55877 | 361 ft | 26 kts | 69° |
| 2026-05-05 18:22 | 50.04095 | 8.56138 | 362 ft | 26 kts | 70° |
| 2026-05-05 18:22 | 50.04157 | 8.56400 | 366 ft | 26 kts | 70° |
| 2026-05-05 18:22 | 50.04219 | 8.56661 | 368 ft | 26 kts | 70° |
| 2026-05-05 18:22 | 50.04282 | 8.56922 | 366 ft | 26 kts | 70° |
| 2026-05-05 18:23 | 50.04344 | 8.57183 | 368 ft | 26 kts | 70° |
| 2026-05-05 18:23 | 50.04407 | 8.57446 | 370 ft | 26 kts | 69° |
| 2026-05-05 18:23 | 50.04470 | 8.57708 | 372 ft | 26 kts | 69° |
| 2026-05-05 18:23 | 50.04533 | 8.57970 | 371 ft | 26 kts | 70° |
| 2026-05-05 18:24 | 50.04594 | 8.58233 | 374 ft | 26 kts | 70° |
| 2026-05-05 18:24 | 50.04634 | 8.58397 | 375 ft | 0 kts | 69° |
| 2026-05-05 18:24 | 50.04634 | 8.58398 | 375 ft | 0 kts | 69° |
| 2026-05-05 18:25 | 50.04636 | 8.58408 | 374 ft | 5 kts | 69° |
| 2026-05-05 18:25 | 50.04656 | 8.58490 | 375 ft | 9 kts | 71° |
| 2026-05-05 18:26 | 50.04631 | 8.58567 | 375 ft | 9 kts | 153° |
| 2026-05-05 18:26 | 50.04604 | 8.58584 | 375 ft | 0 kts | 159° |
| 2026-05-05 18:30 | 50.04603 | 8.58584 | 375 ft | 2 kts | 159° |
| 2026-05-05 18:30 | 50.04543 | 8.58621 | 381 ft | 8 kts | 158° |
| 2026-05-05 18:31 | 50.04493 | 8.58599 | 378 ft | 8 kts | 233° |
| 2026-05-05 18:31 | 50.04480 | 8.58560 | 378 ft | 0 kts | 248° |
| 2026-05-05 18:31 | 50.04478 | 8.58555 | 378 ft | 1 kts | 248° |
| 2026-05-05 18:31 | 50.04475 | 8.58543 | 378 ft | 3 kts | 248° |
| 2026-05-05 18:32 | 50.04382 | 8.58156 | 375 ft | 89 kts | 250° |
| 2026-05-05 18:32 | 50.04038 | 8.56733 | 387 ft | 189 kts | 249° |
| 2026-05-05 18:32 | 50.03564 | 8.54710 | 1299 ft | 199 kts | 251° |
| 2026-05-05 18:32 | 50.03110 | 8.52721 | 2576 ft | 193 kts | 249° |
| 2026-05-05 18:33 | 50.02654 | 8.50755 | 3324 ft | 191 kts | 262° |
| 2026-05-05 18:33 | 50.02772 | 8.48686 | 3915 ft | 199 kts | 278° |
| 2026-05-05 18:33 | 50.02987 | 8.46404 | 3978 ft | 222 kts | 275° |
| 2026-05-05 18:33 | 50.03181 | 8.44007 | 3982 ft | 224 kts | 277° |
| 2026-05-05 18:34 | 50.03774 | 8.41767 | 4028 ft | 235 kts | 307° |
| 2026-05-05 18:34 | 50.05028 | 8.39976 | 4035 ft | 252 kts | 320° |
| 2026-05-05 18:34 | 50.06441 | 8.38331 | 4033 ft | 255 kts | 321° |
| 2026-05-05 18:34 | 50.07862 | 8.36686 | 4026 ft | 255 kts | 320° |
| 2026-05-05 18:35 | 50.09279 | 8.35028 | 4019 ft | 255 kts | 320° |
| 2026-05-05 18:35 | 50.10711 | 8.33423 | 4004 ft | 251 kts | 329° |
| 2026-05-05 18:35 | 50.12396 | 8.32778 | 3993 ft | 258 kts | 1° |
| 2026-05-05 18:35 | 50.14190 | 8.33394 | 4042 ft | 271 kts | 16° |
| 2026-05-05 18:36 | 50.15981 | 8.34260 | 4020 ft | 270 kts | 15° |
| 2026-05-05 18:36 | 50.17790 | 8.35126 | 4445 ft | 272 kts | 16° |
| 2026-05-05 18:36 | 50.19631 | 8.36006 | 5352 ft | 280 kts | 15° |
| 2026-05-05 18:36 | 50.21506 | 8.36900 | 6349 ft | 284 kts | 15° |
| 2026-05-05 18:37 | 50.23407 | 8.37801 | 7250 ft | 288 kts | 16° |
| 2026-05-05 18:37 | 50.25337 | 8.38716 | 8172 ft | 292 kts | 15° |
| 2026-05-05 18:37 | 50.27292 | 8.39644 | 9094 ft | 296 kts | 16° |
| 2026-05-05 18:37 | 50.29236 | 8.40728 | 9894 ft | 299 kts | 28° |
| 2026-05-05 18:38 | 50.30897 | 8.42754 | 10336 ft | 313 kts | 43° |
| 2026-05-05 18:38 | 50.32486 | 8.45276 | 10505 ft | 338 kts | 51° |
| 2026-05-05 18:38 | 50.33931 | 8.48366 | 10737 ft | 365 kts | 57° |
| 2026-05-05 18:38 | 50.35345 | 8.51775 | 11320 ft | 380 kts | 59° |
| 2026-05-05 18:39 | 50.36776 | 8.55312 | 12107 ft | 388 kts | 59° |
| 2026-05-05 18:39 | 50.38237 | 8.58901 | 13012 ft | 393 kts | 59° |
| 2026-05-05 18:39 | 50.39728 | 8.62518 | 13926 ft | 397 kts | 58° |
| 2026-05-05 18:39 | 50.41250 | 8.66165 | 14765 ft | 402 kts | 58° |
| 2026-05-05 18:40 | 50.42794 | 8.69837 | 15574 ft | 406 kts | 58° |
| 2026-05-05 18:40 | 50.43832 | 8.72292 | 16104 ft | 409 kts | 58° |
| 2026-05-05 18:40 | 50.45415 | 8.76031 | 16888 ft | 414 kts | 58° |
| 2026-05-05 18:40 | 50.47020 | 8.79819 | 17659 ft | 419 kts | 58° |
| 2026-05-05 18:41 | 50.48643 | 8.83649 | 18413 ft | 423 kts | 58° |
| 2026-05-05 18:41 | 50.50278 | 8.87513 | 19106 ft | 427 kts | 58° |
| 2026-05-05 18:41 | 50.51927 | 8.91415 | 19812 ft | 430 kts | 58° |
| 2026-05-05 18:41 | 50.53584 | 8.95343 | 20494 ft | 433 kts | 58° |
| 2026-05-05 18:42 | 50.55255 | 8.99315 | 21164 ft | 437 kts | 58° |
| 2026-05-05 18:42 | 50.56942 | 9.03322 | 21814 ft | 442 kts | 59° |
| 2026-05-05 18:42 | 50.58642 | 9.07375 | 22459 ft | 446 kts | 59° |
| 2026-05-05 18:42 | 50.60365 | 9.11485 | 22867 ft | 456 kts | 59° |
| 2026-05-05 18:43 | 50.62136 | 9.15728 | 22975 ft | 471 kts | 59° |
| 2026-05-05 18:43 | 50.63951 | 9.20081 | 23369 ft | 479 kts | 59° |
| 2026-05-05 18:43 | 50.65785 | 9.24480 | 23841 ft | 482 kts | 59° |
| 2026-05-05 18:43 | 50.67631 | 9.28912 | 24389 ft | 484 kts | 59° |
| 2026-05-05 18:44 | 50.69484 | 9.33369 | 24888 ft | 488 kts | 59° |
| 2026-05-05 18:44 | 50.71347 | 9.37857 | 25343 ft | 491 kts | 59° |
| 2026-05-05 18:44 | 50.73220 | 9.42377 | 25833 ft | 493 kts | 59° |
| 2026-05-05 18:44 | 50.75092 | 9.46902 | 26505 ft | 490 kts | 59° |
| 2026-05-05 18:45 | 50.76953 | 9.51411 | 26833 ft | 492 kts | 59° |
| 2026-05-05 18:45 | 50.78817 | 9.55933 | 26787 ft | 490 kts | 59° |
| 2026-05-05 18:45 | 50.80669 | 9.60437 | 26791 ft | 487 kts | 59° |
| 2026-05-05 18:45 | 50.82509 | 9.64919 | 26795 ft | 487 kts | 59° |
| 2026-05-05 18:46 | 50.84352 | 9.69419 | 26798 ft | 487 kts | 59° |
| 2026-05-05 18:46 | 50.86193 | 9.73921 | 26815 ft | 488 kts | 59° |
| 2026-05-05 18:46 | 50.88036 | 9.78434 | 26795 ft | 488 kts | 59° |
| 2026-05-05 18:46 | 50.89877 | 9.82951 | 26798 ft | 488 kts | 60° |
| 2026-05-05 18:47 | 50.91719 | 9.87472 | 26803 ft | 488 kts | 59° |
| 2026-05-05 18:47 | 50.93557 | 9.91997 | 26793 ft | 489 kts | 59° |
| 2026-05-05 18:47 | 50.95373 | 9.96564 | 26799 ft | 490 kts | 62° |
| 2026-05-05 18:47 | 50.96950 | 10.01357 | 26805 ft | 490 kts | 67° |
| 2026-05-05 18:48 | 50.98400 | 10.06261 | 26810 ft | 491 kts | 68° |
| 2026-05-05 18:48 | 50.99845 | 10.11180 | 26805 ft | 493 kts | 68° |
| 2026-05-05 18:48 | 51.01309 | 10.16109 | 26802 ft | 494 kts | 67° |
| 2026-05-05 18:48 | 51.02788 | 10.21034 | 26801 ft | 494 kts | 67° |
| 2026-05-05 18:49 | 51.04275 | 10.25960 | 26799 ft | 494 kts | 67° |
| 2026-05-05 18:49 | 51.05749 | 10.30889 | 26806 ft | 493 kts | 68° |
| 2026-05-05 18:49 | 51.07130 | 10.35861 | 26773 ft | 492 kts | 69° |
| 2026-05-05 18:49 | 51.08493 | 10.40842 | 26483 ft | 491 kts | 69° |
| 2026-05-05 18:50 | 51.09882 | 10.45795 | 26175 ft | 488 kts | 69° |
| 2026-05-05 18:50 | 51.11277 | 10.50711 | 25827 ft | 489 kts | 69° |
| 2026-05-05 18:50 | 51.12672 | 10.55669 | 25448 ft | 492 kts | 70° |
| 2026-05-05 18:50 | 51.13788 | 10.60814 | 25087 ft | 491 kts | 79° |
| 2026-05-05 18:51 | 51.14397 | 10.66117 | 24732 ft | 483 kts | 86° |
| 2026-05-05 18:51 | 51.14587 | 10.71405 | 24381 ft | 474 kts | 95° |
| 2026-05-05 18:51 | 51.14377 | 10.76603 | 24023 ft | 468 kts | 98° |
| 2026-05-05 18:51 | 51.14125 | 10.81753 | 23675 ft | 466 kts | 97° |
| 2026-05-05 18:52 | 51.13889 | 10.86894 | 23325 ft | 465 kts | 97° |
| 2026-05-05 18:52 | 51.13672 | 10.92012 | 22907 ft | 463 kts | 97° |
| 2026-05-05 18:52 | 51.13465 | 10.97127 | 22492 ft | 461 kts | 96° |
| 2026-05-05 18:52 | 51.13263 | 11.02215 | 22038 ft | 461 kts | 96° |
| 2026-05-05 18:53 | 51.13057 | 11.07309 | 21567 ft | 461 kts | 96° |
| 2026-05-05 18:53 | 51.12848 | 11.12400 | 21109 ft | 460 kts | 96° |
| 2026-05-05 18:53 | 51.12655 | 11.17446 | 20654 ft | 454 kts | 96° |
| 2026-05-05 18:53 | 51.12474 | 11.22437 | 20171 ft | 449 kts | 96° |
| 2026-05-05 18:54 | 51.12295 | 11.27363 | 19677 ft | 443 kts | 96° |
| 2026-05-05 18:54 | 51.12117 | 11.32219 | 19187 ft | 437 kts | 96° |
| 2026-05-05 18:54 | 51.11936 | 11.37010 | 18706 ft | 431 kts | 96° |
| 2026-05-05 18:54 | 51.11754 | 11.41741 | 18240 ft | 425 kts | 96° |
| 2026-05-05 18:55 | 51.11572 | 11.46405 | 17716 ft | 420 kts | 96° |
| 2026-05-05 18:55 | 51.11391 | 11.51025 | 17186 ft | 415 kts | 96° |
| 2026-05-05 18:55 | 51.11213 | 11.55580 | 16654 ft | 410 kts | 95° |
| 2026-05-05 18:55 | 51.11259 | 11.60094 | 16160 ft | 407 kts | 87° |
| 2026-05-05 18:56 | 51.11558 | 11.64555 | 15646 ft | 403 kts | 85° |
| 2026-05-05 18:56 | 51.11859 | 11.68967 | 15156 ft | 399 kts | 86° |
| 2026-05-05 18:56 | 51.12116 | 11.73334 | 14661 ft | 390 kts | 87° |
| 2026-05-05 18:56 | 51.12336 | 11.77525 | 14148 ft | 371 kts | 88° |
| 2026-05-05 18:57 | 51.12538 | 11.81519 | 13661 ft | 354 kts | 88° |
| 2026-05-05 18:57 | 51.12728 | 11.85338 | 13112 ft | 340 kts | 88° |
| 2026-05-05 18:57 | 51.12910 | 11.89037 | 12584 ft | 331 kts | 88° |
| 2026-05-05 18:57 | 51.13089 | 11.92649 | 12088 ft | 334 kts | 88° |
| 2026-05-05 18:58 | 51.13275 | 11.96420 | 11582 ft | 340 kts | 88° |
| 2026-05-05 18:58 | 51.13457 | 12.00078 | 11095 ft | 333 kts | 87° |
| 2026-05-05 18:58 | 51.13656 | 12.03726 | 10861 ft | 334 kts | 83° |
| 2026-05-05 18:58 | 51.14368 | 12.07245 | 10576 ft | 337 kts | 62° |
| 2026-05-05 18:59 | 51.15850 | 12.10074 | 10189 ft | 329 kts | 39° |
| 2026-05-05 18:59 | 51.17829 | 12.11690 | 9820 ft | 315 kts | 14° |
| 2026-05-05 18:59 | 51.19948 | 12.11895 | 9409 ft | 300 kts | 352° |
| 2026-05-05 18:59 | 51.21946 | 12.11256 | 9019 ft | 287 kts | 346° |
| 2026-05-05 19:00 | 51.23846 | 12.10460 | 8585 ft | 279 kts | 345° |
| 2026-05-05 19:00 | 51.25698 | 12.09642 | 8207 ft | 274 kts | 345° |
| 2026-05-05 19:00 | 51.27539 | 12.08817 | 7839 ft | 275 kts | 345° |
| 2026-05-05 19:00 | 51.29384 | 12.07978 | 7482 ft | 276 kts | 345° |
| 2026-05-05 19:01 | 51.31229 | 12.07123 | 7119 ft | 276 kts | 345° |
| 2026-05-05 19:01 | 51.33070 | 12.06261 | 6814 ft | 275 kts | 345° |
| 2026-05-05 19:01 | 51.34893 | 12.05399 | 6819 ft | 272 kts | 345° |
| 2026-05-05 19:01 | 51.36711 | 12.04537 | 6805 ft | 273 kts | 345° |
| 2026-05-05 19:02 | 51.38535 | 12.03671 | 6821 ft | 274 kts | 345° |
| 2026-05-05 19:02 | 51.40361 | 12.02785 | 6810 ft | 274 kts | 345° |
| 2026-05-05 19:02 | 51.42187 | 12.01895 | 6816 ft | 274 kts | 344° |
| 2026-05-05 19:02 | 51.44015 | 12.01006 | 6811 ft | 274 kts | 344° |
| 2026-05-05 19:03 | 51.45836 | 12.00130 | 6804 ft | 273 kts | 344° |
| 2026-05-05 19:03 | 51.47650 | 11.99259 | 6800 ft | 272 kts | 344° |
| 2026-05-05 19:03 | 51.49456 | 11.98393 | 6806 ft | 270 kts | 344° |
| 2026-05-05 19:03 | 51.51252 | 11.97524 | 6803 ft | 269 kts | 344° |
| 2026-05-05 19:04 | 51.53044 | 11.96658 | 6810 ft | 268 kts | 345° |
| 2026-05-05 19:04 | 51.54786 | 11.95615 | 6807 ft | 268 kts | 328° |
| 2026-05-05 19:04 | 51.56101 | 11.93539 | 6809 ft | 267 kts | 299° |
| 2026-05-05 19:04 | 51.56649 | 11.90704 | 6766 ft | 271 kts | 271° |
| 2026-05-05 19:05 | 51.56337 | 11.87705 | 6469 ft | 276 kts | 244° |
| 2026-05-05 19:05 | 51.55209 | 11.85255 | 6098 ft | 272 kts | 217° |
| 2026-05-05 19:05 | 51.53632 | 11.83640 | 5731 ft | 267 kts | 206° |
| 2026-05-05 19:05 | 51.51994 | 11.82251 | 5354 ft | 265 kts | 205° |
| 2026-05-05 19:06 | 51.50358 | 11.80921 | 4981 ft | 263 kts | 205° |
| 2026-05-05 19:06 | 51.48754 | 11.79629 | 4623 ft | 259 kts | 205° |
| 2026-05-05 19:06 | 51.47170 | 11.78362 | 4351 ft | 250 kts | 204° |
| 2026-05-05 19:06 | 51.45651 | 11.77137 | 4066 ft | 240 kts | 204° |
| 2026-05-05 19:07 | 51.44172 | 11.75941 | 3813 ft | 237 kts | 204° |
| 2026-05-05 19:07 | 51.42688 | 11.74737 | 3563 ft | 242 kts | 204° |
| 2026-05-05 19:07 | 51.41167 | 11.73509 | 3349 ft | 247 kts | 204° |
| 2026-05-05 19:07 | 51.39621 | 11.72283 | 3106 ft | 245 kts | 200° |
| 2026-05-05 19:08 | 51.38021 | 11.71856 | 3014 ft | 227 kts | 164° |
| 2026-05-05 19:08 | 51.36643 | 11.72910 | 3020 ft | 221 kts | 130° |
| 2026-05-05 19:08 | 51.35923 | 11.75019 | 3005 ft | 219 kts | 96° |
| 2026-05-05 19:08 | 51.36109 | 11.77392 | 3003 ft | 218 kts | 62° |
| 2026-05-05 19:09 | 51.37071 | 11.79242 | 2980 ft | 216 kts | 45° |
| 2026-05-05 19:09 | 51.37981 | 11.81131 | 3007 ft | 216 kts | 62° |
| 2026-05-05 19:09 | 51.38596 | 11.83302 | 2990 ft | 214 kts | 69° |
| 2026-05-05 19:09 | 51.39075 | 11.85556 | 2988 ft | 214 kts | 74° |
| 2026-05-05 19:10 | 51.39408 | 11.87889 | 3009 ft | 216 kts | 77° |
| 2026-05-05 19:10 | 51.39683 | 11.90255 | 2992 ft | 217 kts | 81° |
| 2026-05-05 19:10 | 51.39853 | 11.92652 | 3010 ft | 216 kts | 84° |
| 2026-05-05 19:10 | 51.39967 | 11.94999 | 2975 ft | 205 kts | 85° |
| 2026-05-05 19:11 | 51.40068 | 11.97198 | 2967 ft | 191 kts | 84° |
| 2026-05-05 19:11 | 51.40167 | 11.99311 | 3042 ft | 192 kts | 84° |
| 2026-05-05 19:11 | 51.40267 | 12.01416 | 2815 ft | 185 kts | 84° |
| 2026-05-05 19:11 | 51.40361 | 12.03413 | 2536 ft | 175 kts | 84° |
| 2026-05-05 19:12 | 51.40445 | 12.05259 | 2310 ft | 156 kts | 83° |
| 2026-05-05 19:12 | 51.40521 | 12.06894 | 2125 ft | 139 kts | 82° |
| 2026-05-05 19:12 | 51.40603 | 12.08391 | 1935 ft | 131 kts | 81° |
| 2026-05-05 19:12 | 51.40695 | 12.09840 | 1818 ft | 133 kts | 82° |
| 2026-05-05 19:13 | 51.40734 | 12.11330 | 1708 ft | 134 kts | 83° |
| 2026-05-05 19:13 | 51.40807 | 12.12849 | 1539 ft | 138 kts | 80° |
| 2026-05-05 19:13 | 51.40898 | 12.14398 | 1275 ft | 142 kts | 82° |
| 2026-05-05 19:13 | 51.40962 | 12.15979 | 1009 ft | 142 kts | 86° |
| 2026-05-05 19:14 | 51.41017 | 12.17563 | 835 ft | 141 kts | 81° |
| 2026-05-05 19:14 | 51.41104 | 12.19148 | 640 ft | 144 kts | 83° |
| 2026-05-05 19:14 | 51.41175 | 12.20732 | 455 ft | 137 kts | 83° |
| 2026-05-05 19:14 | 51.41239 | 12.22094 | 463 ft | 103 kts | 86° |
| 2026-05-05 19:15 | 51.41280 | 12.22991 | 470 ft | 58 kts | 85° |
| 2026-05-05 19:15 | 51.41303 | 12.23461 | 475 ft | 37 kts | 85° |
| 2026-05-05 19:15 | 51.41310 | 12.23818 | 478 ft | 30 kts | 93° |
| 2026-05-05 19:15 | 51.41267 | 12.24092 | 476 ft | 11 kts | 115° |
| 2026-05-05 19:16 | 51.41233 | 12.24202 | 470 ft | 7 kts | 115° |
| 2026-05-05 19:16 | 51.41231 | 12.24211 | 472 ft | 2 kts | 115° |
| 2026-05-05 19:16 | 51.41230 | 12.24215 | 472 ft | 0 kts | 115° |
| 2026-05-05 19:17 | 51.41229 | 12.24219 | 472 ft | 1 kts | 115° |
| 2026-05-05 19:18 | 51.41223 | 12.24237 | 471 ft | 2 kts | 115° |
| 2026-05-05 19:18 | 51.41214 | 12.24267 | 473 ft | 3 kts | 115° |
| 2026-05-05 19:18 | 51.41205 | 12.24298 | 472 ft | 3 kts | 115° |
| 2026-05-05 19:18 | 51.41196 | 12.24329 | 473 ft | 3 kts | 115° |
| 2026-05-05 19:19 | 51.41185 | 12.24358 | 469 ft | 3 kts | 126° |
| 2026-05-05 19:19 | 51.41168 | 12.24379 | 471 ft | 3 kts | 150° |
| 2026-05-05 19:19 | 51.41134 | 12.24394 | 471 ft | 10 kts | 172° |
| 2026-05-05 19:19 | 51.41094 | 12.24531 | 472 ft | 18 kts | 86° |
| 2026-05-05 19:20 | 51.41018 | 12.24653 | 468 ft | 18 kts | 175° |
| 2026-05-05 19:20 | 51.40893 | 12.24667 | 468 ft | 10 kts | 176° |
| 2026-05-05 19:20 | 51.40854 | 12.24740 | 469 ft | 11 kts | 91° |
| 2026-05-05 19:20 | 51.40855 | 12.24784 | 469 ft | 3 kts | 87° |
| 2026-05-05 19:21 | 51.40856 | 12.24814 | 469 ft | 3 kts | 86° |
| 2026-05-05 19:21 | 51.40857 | 12.24822 | 469 ft | 0 kts | 86° |